This is the latest recevied weather packets stored in our database for station/object GW1482. If no packets are shown the sender has not sent any weather packets the latest 10 day(s).
| Time | Temp. | Humidity | Pressure | Rain* | Wind** | Luminosity | Snow |
|---|---|---|---|---|---|---|---|
| 1778105023 | 11.67° C | 99% | 998.3 hPa | 17.53 mm | - | - | - |
| 1778104658 | 11.67° C | 99% | 997.9 hPa | 17.53 mm | - | - | - |
| 1778102833 | 11.67° C | 99% | 997.2 hPa | 17.02 mm | - | - | - |
| 1778100331 | 12.22° C | 99% | 997.6 hPa | 17.02 mm | - | - | - |
| 1778099591 | 12.78° C | 99% | 996.9 hPa | 16.51 mm | - | - | - |
| 1778096393 | 13.89° C | 99% | 996.6 hPa | 15.24 mm | - | - | - |
| 1778094943 | 14.44° C | 99% | 996.6 hPa | 15.24 mm | - | - | - |
| 1778094221 | 14.44° C | 99% | 996.2 hPa | 14.22 mm | - | - | - |
| 1778092760 | 14.44° C | 99% | 996.2 hPa | 14.22 mm | - | - | - |
| 1778089887 | 15° C | 99% | 996.2 hPa | 13.97 mm | - | - | - |
| 1778085586 | 15° C | 99% | 996.9 hPa | 11.68 mm | - | - | - |
| 1778084869 | 15° C | 99% | 996.9 hPa | 11.43 mm | - | - | - |
| 1778084146 | 15° C | 98% | 996.9 hPa | 11.18 mm | - | - | - |
| 1778080174 | 15.56° C | 93% | 996.2 hPa | 11.18 mm | - | - | - |
| 1778079791 | 15.56° C | 93% | 996.2 hPa | 11.18 mm | - | - | - |
| 1778077277 | 14.44° C | 95% | 996.2 hPa | 11.18 mm | - | - | - |
| 1778076575 | 14.44° C | 96% | 996.2 hPa | 11.18 mm | - | - | - |
| 1778074430 | 13.89° C | 98% | 995.9 hPa | 11.18 mm | - | - | - |
| 1778071906 | 13.33° C | 99% | 995.9 hPa | 11.18 mm | - | - | - |
| 1778070800 | 12.78° C | 99% | 995.5 hPa | 10.67 mm | - | - | - |
| 1778070435 | 12.78° C | 99% | 995.5 hPa | 10.67 mm | - | - | - |
| 1778067588 | 12.78° C | 99% | 994.9 hPa | 8.89 mm | - | - | - |
| 1778065753 | 12.22° C | 99% | 995.5 hPa | 8.38 mm | - | - | - |
| 1778063631 | 12.22° C | 99% | 994.9 hPa | 5.84 mm | - | - | - |
| 1778059273 | 12.78° C | 93% | 995.5 hPa | 2.29 mm | - | - | - |
* Rain since midnight (hover to see other rain measurements)
** Current wind speed in m/s (hover to see current wind gust speed)